Weather History for Midland Airpark, TX

Change the Weather History Date:

Saturday, May 4, 2013

  Actual Average (KMAF) Record (KMAF)
Temperature  
Mean Temperature 64 °F 70 °F  
Max Temperature 78 °F 85 °F 103 °F (1947)
Min Temperature 49 °F 56 °F 38 °F (1978)
Degree Days  
Heating Degree Days 2    
Cooling Degree Days 0 6  
Month to date cooling degree days 23  
Year to date cooling degree days 131  
Growing Degree Days 14 (Base 50)    
Moisture  
Dew Point 16 °F    
Average Humidity 16    
Maximum Humidity 27    
Minimum Humidity 10    
Precipitation  
Precipitation 0.00 in 0.04 in 1.29 in (1969)
Month to date precipitation 0.13  
Year to date precipitation 2.65  
Sea Level Pressure  
Sea Level Pressure 30.02 in    
Wind  
Wind Speed 5 mph (ESE)    
Max Wind Speed 9 mph    
Max Gust Speed -    
Visibility 10 miles    
Events      
T = Trace of Precipitation, MM = Missing Value Source: NWS Daily Summary

Daily Weather History Graph

Daily Weather History Graph

Search for Another Location

Airport:

Trip Planner

Search our weather history database for the weather conditions in past years. The results will help you decide how hot, cold, wet, or windy it might be!

Date:

Astronomy

May. 04, 2013 Rise Set
Actual Time 6:59 AM CDT 8:31 PM CDT
Civil Twilight 6:33 AM CDT 8:57 PM CDT
Nautical Twilight 6:01 AM CDT 9:29 PM CDT
Astronomical Twilight 5:29 AM CDT 10:02 PM CDT
Moon 3:40 AM CDT (5/4) 3:48 PM CDT (5/4)
Length of Visible Light 14h 24m
Length of Day
13h 31m
Waning Crescent, 27% of the Moon is Illuminated
May 4
Waning Crescent
May 9
New
May 17
First Quarter
May 24
Full
May 31
Last Quarter

Hourly Weather History & Observations

Time (CDT) Temp. Dew Point Humidity Pressure Visibility Wind Dir Wind Speed Gust Speed Precip Events Conditions
12:15 AM 56.3 °F 16.5 °F 21% 30.07 in 10.0 mi SSW 5.8 mph - N/A   Clear
12:35 AM 56.3 °F 16.3 °F 21% 30.07 in 10.0 mi SSW 5.8 mph - N/A   Clear
12:55 AM 56.3 °F 15.8 °F 20% 30.07 in 10.0 mi SSW 5.8 mph - N/A   Clear
1:15 AM 55.4 °F 15.6 °F 21% 30.06 in 10.0 mi SSW 6.9 mph - N/A   Clear
1:35 AM 55.2 °F 15.4 °F 21% 30.05 in 10.0 mi SSW 4.6 mph - N/A   Clear
1:55 AM 55.4 °F 14.9 °F 20% 30.04 in 10.0 mi SSW 5.8 mph - N/A   Clear
2:15 AM 55.6 °F 14.5 °F 20% 30.04 in 10.0 mi SSW 5.8 mph - N/A   Clear
2:35 AM 54.9 °F 14.5 °F 20% 30.03 in 10.0 mi SSW 8.1 mph - N/A   Clear
2:55 AM 54.3 °F 14.7 °F 21% 30.02 in 10.0 mi SW 6.9 mph - N/A   Clear
3:15 AM 54.1 °F 14.0 °F 20% 30.02 in 10.0 mi SW 8.1 mph - N/A   Clear
3:35 AM 54.5 °F 14.4 °F 20% 30.01 in 10.0 mi SW 8.1 mph - N/A   Clear
3:55 AM 55.0 °F 14.5 °F 20% 30.01 in 10.0 mi SW 8.1 mph - N/A   Clear
4:15 AM 54.5 °F 14.9 °F 21% 30.02 in 10.0 mi SW 9.2 mph - N/A   Clear
4:35 AM 54.0 °F 14.9 °F 21% 30.02 in 10.0 mi SW 8.1 mph - N/A   Clear
4:55 AM 53.6 °F 14.9 °F 22% 30.01 in 10.0 mi SW 9.2 mph - N/A   Clear
5:15 AM 54.0 °F 14.9 °F 21% 30.01 in 10.0 mi SW 9.2 mph - N/A   Clear
5:35 AM 52.9 °F 15.1 °F 22% 30.02 in 10.0 mi SW 9.2 mph - N/A   Clear
5:55 AM 52.5 °F 15.3 °F 23% 30.02 in 10.0 mi SW 8.1 mph - N/A   Clear
6:15 AM 52.2 °F 15.6 °F 24% 30.02 in 10.0 mi SW 8.1 mph - N/A   Clear
6:35 AM 51.8 °F 15.8 °F 24% 30.02 in 10.0 mi SW 6.9 mph - N/A   Clear
6:55 AM 51.3 °F 16.0 °F 25% 30.02 in 10.0 mi WSW 3.5 mph - N/A   Clear
7:15 AM 49.8 °F 16.7 °F 27% 30.03 in 10.0 mi Calm Calm - N/A   Clear
7:35 AM 51.1 °F 16.7 °F 26% 30.03 in 10.0 mi Calm Calm - N/A   Clear
7:55 AM 52.9 °F 17.6 °F 25% 30.04 in 10.0 mi Calm Calm - N/A   Clear
8:15 AM 55.2 °F 17.1 °F 22% 30.05 in 10.0 mi SSW 4.6 mph - N/A   Clear
8:35 AM 56.3 °F 17.4 °F 22% 30.06 in 10.0 mi Calm Calm - N/A   Clear
8:55 AM 58.3 °F 16.9 °F 20% 30.06 in 10.0 mi Calm Calm - N/A   Clear
9:15 AM 59.5 °F 17.2 °F 19% 30.06 in 10.0 mi Calm Calm - N/A   Clear
9:35 AM 60.4 °F 16.7 °F 18% 30.06 in 10.0 mi SSE 3.5 mph - N/A   Clear
9:55 AM 61.3 °F 16.9 °F 18% 30.06 in 10.0 mi Calm Calm - N/A   Clear
10:15 AM 63.9 °F 16.0 °F 16% 30.06 in 10.0 mi Calm Calm - N/A   Clear
10:35 AM 64.6 °F 16.7 °F 16% 30.06 in 10.0 mi Calm Calm - N/A   Clear
10:55 AM 66.2 °F 16.9 °F 15% 30.06 in 10.0 mi Calm Calm - N/A   Clear
11:15 AM 66.9 °F 17.2 °F 15% 30.05 in 10.0 mi Calm Calm - N/A   Clear
11:35 AM 68.9 °F 17.4 °F 14% 30.05 in 10.0 mi Calm Calm - N/A   Clear
11:55 AM 70.5 °F 18.0 °F 14% 30.05 in 10.0 mi NE 3.5 mph - N/A   Clear
12:15 PM 71.4 °F 18.0 °F 13% 30.04 in 10.0 mi Calm Calm - N/A   Clear
12:35 PM 71.6 °F 16.7 °F 12% 30.03 in 10.0 mi East 8.1 mph - N/A   Clear
12:55 PM 72.5 °F 16.9 °F 12% 30.03 in 10.0 mi East 4.6 mph - N/A   Clear
1:15 PM 73.8 °F 17.1 °F 12% 30.03 in 10.0 mi East 5.8 mph - N/A   Clear
1:35 PM 75.6 °F 17.6 °F 11% 30.02 in 10.0 mi SE 8.1 mph - N/A   Clear
1:55 PM 74.5 °F 17.1 °F 11% 30.01 in 10.0 mi ESE 9.2 mph - N/A   Clear
2:15 PM 75.2 °F 16.7 °F 11% 30.00 in 10.0 mi East 4.6 mph - N/A   Clear
2:35 PM 74.7 °F 16.2 °F 11% 30.00 in 10.0 mi Calm Calm - N/A   Clear
2:55 PM 75.2 °F 16.2 °F 11% 29.99 in 10.0 mi East 5.8 mph - N/A   Clear
3:15 PM 76.1 °F 16.2 °F 10% 29.99 in 10.0 mi East 8.1 mph - N/A   Clear
3:35 PM 76.8 °F 16.2 °F 10% 29.98 in 10.0 mi Calm Calm - N/A   Clear
3:55 PM 75.6 °F 15.6 °F 10% 29.98 in 10.0 mi ENE 6.9 mph - N/A   Clear
4:15 PM 75.6 °F 15.8 °F 10% 29.97 in 10.0 mi East 6.9 mph - N/A   Clear
4:35 PM 76.1 °F 15.8 °F 10% 29.96 in 10.0 mi NE 6.9 mph - N/A   Clear
4:55 PM 76.3 °F 16.0 °F 10% 29.96 in 10.0 mi NNE 5.8 mph - N/A   Clear
5:15 PM 76.5 °F 15.4 °F 10% 29.96 in 10.0 mi East 6.9 mph - N/A   Clear
5:35 PM 78.1 °F 16.0 °F 10% 29.95 in 10.0 mi ENE 5.8 mph - N/A   Clear
5:55 PM 78.3 °F 15.8 °F 10% 29.95 in 10.0 mi NE 9.2 mph - N/A   Clear
6:15 PM 77.7 °F 15.8 °F 10% 29.95 in 10.0 mi NE 6.9 mph - N/A   Clear
6:35 PM 77.9 °F 15.6 °F 10% 29.94 in 10.0 mi ENE 6.9 mph - N/A   Clear
6:55 PM 77.9 °F 15.8 °F 10% 29.95 in 10.0 mi ENE 5.8 mph - N/A   Clear
7:15 PM 77.2 °F 15.3 °F 10% 29.95 in 10.0 mi East 4.6 mph - N/A   Clear
7:35 PM 76.8 °F 15.4 °F 10% 29.96 in 10.0 mi East 6.9 mph - N/A   Clear
7:55 PM 75.4 °F 15.6 °F 10% 29.96 in 10.0 mi East 5.8 mph - N/A   Clear
8:15 PM 73.6 °F 16.2 °F 11% 29.97 in 10.0 mi ENE 6.9 mph - N/A   Clear
8:35 PM 72.1 °F 16.7 °F 12% 29.98 in 10.0 mi East 8.1 mph - N/A   Clear
8:55 PM 71.1 °F 16.7 °F 13% 29.99 in 10.0 mi East 6.9 mph - N/A   Clear
9:15 PM 69.8 °F 16.7 °F 13% 30.00 in 10.0 mi East 4.6 mph - N/A   Clear
9:35 PM 68.0 °F 16.7 °F 14% 30.01 in 10.0 mi East 4.6 mph - N/A   Clear
9:55 PM 67.3 °F 16.7 °F 14% 30.02 in 10.0 mi ENE 5.8 mph - N/A   Clear
10:15 PM 66.4 °F 16.5 °F 15% 30.03 in 10.0 mi East 8.1 mph - N/A   Clear
10:35 PM 66.9 °F 16.7 °F 15% 30.03 in 10.0 mi ENE 5.8 mph - N/A   Clear
10:55 PM 64.4 °F 17.1 °F 16% 30.04 in 10.0 mi East 4.6 mph - N/A   Clear
11:15 PM 64.4 °F 18.0 °F 17% 30.05 in 10.0 mi East 3.5 mph - N/A   Clear
11:35 PM 63.7 °F 17.6 °F 17% 30.05 in 10.0 mi East 3.5 mph - N/A   Clear
11:55 PM 62.4 °F 18.3 °F 18% 30.06 in 10.0 mi ENE 5.8 mph - N/A   Clear